createdAt,value
2022-12-05T00:01:00.603Z,100417.50
2022-12-05T00:03:28.216Z,100412.47
2022-12-05T00:05:55.553Z,100413.66
2022-12-05T00:08:22.858Z,100406.47
2022-12-05T00:10:50.448Z,100398.97
2022-12-05T00:13:17.922Z,100401.47
2022-12-05T00:15:45.264Z,100410.63
2022-12-05T00:18:12.881Z,100407.88
2022-12-05T00:20:47.166Z,100421.97
2022-12-05T00:23:14.842Z,100406.87
2022-12-05T00:25:42.208Z,100402.69
2022-12-05T00:28:09.563Z,100400.59
2022-12-05T00:30:40.501Z,100401.56
2022-12-05T00:33:07.852Z,100399.63
2022-12-05T00:35:35.322Z,100395.88
2022-12-05T00:38:02.895Z,100404.66
2022-12-05T00:40:30.203Z,100403.84
2022-12-05T00:42:57.561Z,100410.41
2022-12-05T00:45:25.171Z,100415.66
2022-12-05T00:47:52.479Z,100411.09
2022-12-05T00:50:19.977Z,100408.69
2022-12-05T00:52:47.562Z,100407.72
2022-12-05T00:55:14.869Z,100408.56
2022-12-05T00:57:42.300Z,100409.34
2022-12-05T01:00:10.230Z,100404.78
2022-12-05T01:02:37.841Z,100400.91
2022-12-05T01:05:05.705Z,100397.50
2022-12-05T01:07:33.285Z,100400.63
2022-12-05T01:10:00.636Z,100400.34
2022-12-05T01:12:28.211Z,100398.97
2022-12-05T01:14:55.786Z,100396.28
2022-12-05T01:17:23.069Z,100385.25
2022-12-05T01:19:50.385Z,100385.84
2022-12-05T01:22:18.158Z,100380.56
2022-12-05T01:24:46.099Z,100381.12
2022-12-05T01:27:13.433Z,100380.88
2022-12-05T01:29:41.012Z,100376.13
2022-12-05T01:32:08.363Z,100379.19
2022-12-05T01:34:35.764Z,100400.63
2022-12-05T01:37:03.492Z,100397.09
2022-12-05T01:39:30.793Z,100390.91
2022-12-05T01:41:58.128Z,100387.94
2022-12-05T01:44:25.559Z,100397.25
2022-12-05T01:46:52.904Z,100391.44
2022-12-05T01:49:32.989Z,100402.72
2022-12-05T01:52:14.139Z,100388.38
2022-12-05T01:54:41.552Z,100391.69
2022-12-05T01:57:10.845Z,100388.59
2022-12-05T01:59:44.341Z,100386.16
2022-12-05T02:02:11.968Z,100388.75
2022-12-05T02:04:49.326Z,100386.25
2022-12-05T02:07:16.649Z,100381.50
2022-12-05T02:09:44.227Z,100396.06
2022-12-05T02:12:11.641Z,100390.72
2022-12-05T02:14:52.373Z,100389.34
2022-12-05T02:17:32.673Z,100385.28
2022-12-05T02:20:12.030Z,100379.19
2022-12-05T02:22:58.628Z,100389.37
2022-12-05T02:25:56.900Z,100394.53
2022-12-05T02:28:32.328Z,100393.97
2022-12-05T02:31:04.788Z,100392.81
2022-12-05T02:33:44.025Z,100391.03
2022-12-05T02:36:39.382Z,100392.44
2022-12-05T02:39:14.289Z,100392.28
2022-12-05T02:41:47.098Z,100403.69
2022-12-05T02:44:22.751Z,100406.47
2022-12-05T02:46:50.115Z,100413.72
2022-12-05T02:49:20.909Z,100410.66
2022-12-05T02:51:50.310Z,100404.06
2022-12-05T02:54:24.174Z,100398.62
2022-12-05T02:56:51.615Z,100413.03
2022-12-05T02:59:23.284Z,100410.09
2022-12-05T03:01:51.216Z,100413.03
2022-12-05T03:04:21.036Z,100407.03
2022-12-05T03:06:58.094Z,100408.72
2022-12-05T03:09:30.468Z,100422.12
2022-12-05T03:12:21.195Z,100422.88
2022-12-05T03:15:06.758Z,100408.31
2022-12-05T03:17:37.254Z,100406.75
2022-12-05T03:20:28.375Z,100408.31
2022-12-05T03:23:19.728Z,100411.75
2022-12-05T03:25:50.169Z,100406.19
2022-12-05T03:28:25.718Z,100408.31
2022-12-05T03:30:53.701Z,100419.81
2022-12-05T03:33:23.664Z,100403.28
2022-12-05T03:36:03.243Z,100404.50
2022-12-05T03:38:35.987Z,100412.16
2022-12-05T03:41:25.832Z,100395.63
2022-12-05T03:43:57.551Z,100396.59
2022-12-05T03:46:30.357Z,100408.03
2022-12-05T03:49:00.924Z,100406.63
2022-12-05T03:51:33.368Z,100400.16
2022-12-05T03:54:10.957Z,100401.00
2022-12-05T03:56:42.005Z,100409.41
2022-12-05T03:59:19.204Z,100408.91
2022-12-05T04:01:46.998Z,100417.00
2022-12-05T04:04:21.034Z,100414.53
2022-12-05T04:06:49.088Z,100419.53
2022-12-05T04:09:20.557Z,100416.22
2022-12-05T04:11:53.701Z,100418.88
2022-12-05T04:14:27.077Z,100416.78
2022-12-05T04:17:09.385Z,100415.56
2022-12-05T04:20:06.403Z,100404.50
2022-12-05T04:22:33.931Z,100406.81
2022-12-05T04:25:21.174Z,100407.09
2022-12-05T04:27:57.068Z,100403.34
2022-12-05T04:30:30.604Z,100403.44
2022-12-05T04:33:00.226Z,100398.50
2022-12-05T04:35:34.076Z,100395.72
2022-12-05T04:38:15.754Z,100387.88
2022-12-05T04:41:04.273Z,100388.97
2022-12-05T04:43:33.807Z,100384.09
2022-12-05T04:46:01.457Z,100391.84
2022-12-05T04:48:28.849Z,100388.25
2022-12-05T04:50:56.293Z,100390.78
2022-12-05T04:53:25.103Z,100394.91
2022-12-05T04:55:52.656Z,100388.88
2022-12-05T04:58:24.246Z,100389.91
2022-12-05T05:01:11.534Z,100384.16
2022-12-05T05:04:09.731Z,100380.56
2022-12-05T05:06:38.360Z,100392.81
2022-12-05T05:09:05.743Z,100397.09
2022-12-05T05:11:34.113Z,100398.53
2022-12-05T05:14:01.913Z,100420.53
2022-12-05T05:16:34.212Z,100416.53
2022-12-05T05:19:01.924Z,100409.19
2022-12-05T05:21:30.728Z,100420.94
2022-12-05T05:23:58.267Z,100424.56
2022-12-05T05:26:26.510Z,100407.66
2022-12-05T05:28:53.823Z,100407.44
2022-12-05T05:31:21.547Z,100413.53
2022-12-05T05:33:50.285Z,100412.81
2022-12-05T05:36:18.002Z,100419.84
2022-12-05T05:38:47.342Z,100408.78
2022-12-05T05:41:28.611Z,100422.66
2022-12-05T05:43:56.324Z,100415.34
2022-12-05T05:46:26.185Z,100400.59
2022-12-05T05:48:53.659Z,100411.78
2022-12-05T05:51:21.276Z,100420.63
2022-12-05T05:53:48.898Z,100412.72
2022-12-05T05:56:21.538Z,100421.81
2022-12-05T05:58:55.531Z,100412.00
2022-12-05T06:01:23.004Z,100417.03
2022-12-05T06:03:51.010Z,100419.44
2022-12-05T06:06:18.621Z,100428.28
2022-12-05T06:08:46.066Z,100427.78
2022-12-05T06:11:18.853Z,100433.03
2022-12-05T06:13:49.051Z,100427.44
2022-12-05T06:16:17.638Z,100425.94
2022-12-05T06:18:45.055Z,100439.63
2022-12-05T06:21:16.199Z,100433.16
2022-12-05T06:23:44.289Z,100437.94
2022-12-05T06:26:13.197Z,100436.06
2022-12-05T06:28:40.627Z,100443.91
2022-12-05T06:31:10.002Z,100444.09
2022-12-05T06:33:37.409Z,100448.62
2022-12-05T06:36:10.837Z,100447.19
2022-12-05T06:38:41.968Z,100446.75
2022-12-05T06:41:14.919Z,100451.13
2022-12-05T06:43:42.703Z,100449.19
2022-12-05T06:46:11.840Z,100454.16
2022-12-05T06:48:39.292Z,100456.03
2022-12-05T06:51:09.336Z,100451.75
2022-12-05T06:53:36.813Z,100452.38
2022-12-05T06:56:05.604Z,100461.97
2022-12-05T06:58:33.176Z,100453.25
2022-12-05T07:01:19.271Z,100448.56
2022-12-05T07:03:48.952Z,100452.97
2022-12-05T07:06:16.698Z,100460.06
2022-12-05T07:08:44.849Z,100457.31
2022-12-05T07:11:12.538Z,100453.56
2022-12-05T07:13:39.897Z,100462.62
2022-12-05T07:16:07.895Z,100460.00
2022-12-05T07:18:36.035Z,100467.44
2022-12-05T07:21:13.433Z,100468.38
2022-12-05T07:23:42.346Z,100477.34
2022-12-05T07:26:11.276Z,100470.59
2022-12-05T07:28:38.617Z,100469.12
2022-12-05T07:31:10.766Z,100472.25
2022-12-05T07:33:38.379Z,100466.06
2022-12-05T07:36:11.353Z,100476.03
2022-12-05T07:38:39.340Z,100480.81
2022-12-05T07:41:12.800Z,100494.06
2022-12-05T07:43:41.502Z,100493.00
2022-12-05T07:46:11.309Z,100503.50
2022-12-05T07:48:39.367Z,100498.81
2022-12-05T07:51:08.621Z,100490.41
2022-12-05T07:53:37.820Z,100500.34
2022-12-05T07:56:06.672Z,100486.75
2022-12-05T07:58:34.943Z,100495.13
2022-12-05T08:01:10.744Z,100497.75
2022-12-05T08:03:38.528Z,100496.22
2022-12-05T08:06:07.495Z,100494.28
2022-12-05T08:08:34.835Z,100490.09
2022-12-05T08:11:12.578Z,100501.28
2022-12-05T08:13:39.994Z,100503.59
2022-12-05T08:16:10.096Z,100504.87
2022-12-05T08:18:37.614Z,100499.84
2022-12-05T08:21:06.768Z,100500.31
2022-12-05T08:23:34.702Z,100494.78
2022-12-05T08:26:06.198Z,100510.88
2022-12-05T08:28:33.913Z,100494.72
2022-12-05T08:31:08.327Z,100504.38
2022-12-05T08:33:35.968Z,100499.03
2022-12-05T08:36:10.334Z,100503.66
2022-12-05T08:38:37.984Z,100502.34
2022-12-05T08:41:06.664Z,100509.00
2022-12-05T08:43:34.047Z,100500.63
2022-12-05T08:46:01.808Z,100513.53
2022-12-05T08:48:29.919Z,100522.03
2022-12-05T08:50:57.434Z,100519.44
2022-12-05T08:53:25.566Z,100507.66
2022-12-05T08:55:52.886Z,100515.97
2022-12-05T08:58:20.221Z,100506.78
2022-12-05T09:00:47.860Z,100516.25
2022-12-05T09:03:15.195Z,100510.00
2022-12-05T09:05:42.648Z,100503.91
2022-12-05T09:08:10.342Z,100500.56
2022-12-05T09:10:38.288Z,100512.63
2022-12-05T09:13:05.671Z,100493.56
2022-12-05T09:15:33.383Z,100500.12
2022-12-05T09:18:00.767Z,100488.16
2022-12-05T09:20:28.135Z,100497.84
2022-12-05T09:22:55.748Z,100499.62
2022-12-05T09:25:23.060Z,100496.81
2022-12-05T09:27:50.384Z,100499.81
2022-12-05T09:30:18.606Z,100495.31
2022-12-05T09:32:46.403Z,100480.87
2022-12-05T09:35:14.083Z,100489.25
2022-12-05T09:37:41.908Z,100484.69
2022-12-05T09:40:16.192Z,100487.31
2022-12-05T09:42:56.855Z,100493.16
2022-12-05T09:45:26.607Z,100493.69
2022-12-05T09:48:11.479Z,100490.38
2022-12-05T09:50:54.788Z,100494.44
2022-12-05T09:53:37.280Z,100508.84
2022-12-05T09:56:06.401Z,100502.78
2022-12-05T09:58:43.781Z,100481.41
2022-12-05T10:01:21.848Z,100487.34
2022-12-05T10:04:01.792Z,100469.72
2022-12-05T10:06:32.340Z,100452.09
2022-12-05T10:09:30.948Z,100450.84
2022-12-05T10:12:17.625Z,100446.13
2022-12-05T10:15:01.864Z,100446.28
2022-12-05T10:17:33.730Z,100451.38
2022-12-05T10:20:14.054Z,100443.72
2022-12-05T10:22:48.202Z,100437.94
2022-12-05T10:25:18.683Z,100426.25
2022-12-05T10:27:50.019Z,100428.50
2022-12-05T10:30:22.193Z,100429.28
2022-12-05T10:33:09.175Z,100419.06
2022-12-05T10:35:38.301Z,100411.81
2022-12-05T10:38:07.167Z,100413.13
2022-12-05T10:40:39.627Z,100421.44
2022-12-05T10:43:08.801Z,100424.84
2022-12-05T10:45:40.411Z,100427.06
2022-12-05T10:48:09.757Z,100426.97
2022-12-05T10:50:37.542Z,100430.47
2022-12-05T10:53:05.741Z,100430.66
2022-12-05T10:55:41.239Z,100423.19
2022-12-05T10:58:17.255Z,100418.69
2022-12-05T11:00:47.820Z,100415.59
2022-12-05T11:03:33.823Z,100418.78
2022-12-05T11:06:02.908Z,100409.31
2022-12-05T11:09:02.376Z,100404.00
2022-12-05T11:11:21.770Z,100402.97
2022-12-05T11:13:57.479Z,100401.12
2022-12-05T11:16:36.186Z,100397.75
2022-12-05T11:19:27.204Z,100398.31
2022-12-05T11:21:55.178Z,100398.00
2022-12-05T11:24:31.851Z,100402.41
2022-12-05T11:27:15.953Z,100400.31
2022-12-05T11:29:44.830Z,100409.53
2022-12-05T11:32:20.651Z,100390.81
2022-12-05T11:35:05.666Z,100380.28
2022-12-05T11:37:58.056Z,100379.75
2022-12-05T11:41:07.612Z,100378.38
2022-12-05T11:43:53.430Z,100374.25
2022-12-05T11:46:37.637Z,100371.25
2022-12-05T11:49:27.381Z,100373.81
2022-12-05T11:51:58.873Z,100364.97
2022-12-05T11:55:04.962Z,100355.31
2022-12-05T11:57:50.420Z,100356.88
2022-12-05T12:00:23.721Z,100360.34
2022-12-05T12:03:14.660Z,100355.31
2022-12-05T12:05:57.413Z,100356.47
2022-12-05T12:08:27.571Z,100355.41
2022-12-05T12:11:19.522Z,100359.50
2022-12-05T12:14:07.634Z,100363.38
2022-12-05T12:16:50.284Z,100352.16
2022-12-05T12:19:21.895Z,100345.25
2022-12-05T12:22:11.312Z,100348.25
2022-12-05T12:25:05.229Z,100342.75
2022-12-05T12:28:17.563Z,100337.44
2022-12-05T12:31:12.332Z,100337.09
2022-12-05T12:33:51.174Z,100340.56
2022-12-05T12:36:46.473Z,100340.09
2022-12-05T12:39:41.948Z,100336.59
2022-12-05T12:42:26.429Z,100334.25
2022-12-05T12:45:21.142Z,100328.91
2022-12-05T12:48:08.057Z,100320.25
2022-12-05T12:50:43.211Z,100317.56
2022-12-05T12:53:30.197Z,100313.50
2022-12-05T12:56:04.468Z,100318.87
2022-12-05T12:58:50.631Z,100322.66
2022-12-05T13:01:33.220Z,100316.94
2022-12-05T13:04:12.483Z,100309.72
2022-12-05T13:06:57.850Z,100297.87
2022-12-05T13:09:53.740Z,100297.87
2022-12-05T13:12:27.381Z,100295.22
2022-12-05T13:15:18.890Z,100302.59
2022-12-05T13:17:47.288Z,100295.91
2022-12-05T13:20:20.669Z,100298.09
2022-12-05T13:22:49.278Z,100302.88
2022-12-05T13:25:17.712Z,100304.19
2022-12-05T13:27:59.020Z,100317.00
2022-12-05T13:30:31.063Z,100313.34
2022-12-05T13:32:59.821Z,100321.53
2022-12-05T13:35:50.668Z,100304.00
2022-12-05T13:38:49.865Z,100307.69
2022-12-05T13:41:36.169Z,100320.12
2022-12-05T13:44:06.796Z,100330.72
2022-12-05T13:46:35.721Z,100335.06
2022-12-05T13:49:17.214Z,100326.47
2022-12-05T13:51:45.374Z,100326.44
2022-12-05T13:54:18.343Z,100328.03
2022-12-05T13:56:55.976Z,100327.81
2022-12-05T14:00:03.231Z,100320.97
2022-12-05T14:02:42.385Z,100307.53
2022-12-05T14:05:19.136Z,100322.34
2022-12-05T14:07:53.198Z,100325.91
2022-12-05T14:10:21.910Z,100317.63
2022-12-05T14:12:51.079Z,100325.41
2022-12-05T14:15:32.854Z,100314.41
2022-12-05T14:18:10.813Z,100314.47
2022-12-05T14:20:47.559Z,100313.31
2022-12-05T14:23:52.066Z,100307.84
2022-12-05T14:26:34.846Z,100315.06
2022-12-05T14:29:31.402Z,100314.22
2022-12-05T14:32:18.344Z,100321.56
2022-12-05T14:34:56.324Z,100315.69
2022-12-05T14:37:28.965Z,100308.69
2022-12-05T14:40:00.843Z,100314.47
2022-12-05T14:42:43.994Z,100322.06
2022-12-05T14:45:29.246Z,100311.75
2022-12-05T14:47:58.619Z,100313.69
2022-12-05T14:50:40.087Z,100310.28
2022-12-05T14:53:30.235Z,100314.84
2022-12-05T14:56:02.200Z,100314.87
2022-12-05T14:59:01.997Z,100314.94
2022-12-05T15:01:48.830Z,100318.34
2022-12-05T15:04:33.577Z,100307.91
2022-12-05T15:07:04.215Z,100312.88
2022-12-05T15:09:37.309Z,100301.03
2022-12-05T15:12:10.354Z,100302.72
2022-12-05T15:14:48.068Z,100302.22
2022-12-05T15:17:18.562Z,100294.56
2022-12-05T15:19:51.093Z,100297.22
2022-12-05T15:22:20.019Z,100292.19
2022-12-05T15:24:47.415Z,100285.66
2022-12-05T15:27:16.711Z,100280.63
2022-12-05T15:29:44.361Z,100285.75
2022-12-05T15:32:11.534Z,100277.50
2022-12-05T15:34:52.182Z,100272.34
2022-12-05T15:37:27.275Z,100278.72
2022-12-05T15:40:21.959Z,100270.19
2022-12-05T15:42:56.267Z,100272.25
2022-12-05T15:45:30.021Z,100272.38
2022-12-05T15:48:11.450Z,100270.87
2022-12-05T15:50:42.684Z,100276.00
2022-12-05T15:53:17.129Z,100283.59
2022-12-05T15:55:49.475Z,100271.94
2022-12-05T15:58:31.581Z,100272.16
2022-12-05T16:01:05.177Z,100277.84
2022-12-05T16:03:44.914Z,100273.66
2022-12-05T16:06:18.495Z,100275.75
2022-12-05T16:08:46.551Z,100277.69
2022-12-05T16:11:14.138Z,100282.34
2022-12-05T16:13:52.110Z,100278.91
2022-12-05T16:16:21.892Z,100282.09
2022-12-05T16:18:57.070Z,100283.09
2022-12-05T16:21:42.005Z,100283.63
2022-12-05T16:24:20.033Z,100287.25
2022-12-05T16:26:58.939Z,100284.66
2022-12-05T16:29:28.336Z,100297.03
2022-12-05T16:31:57.060Z,100305.84
2022-12-05T16:34:24.635Z,100299.28
2022-12-05T16:36:52.594Z,100302.28
2022-12-05T16:39:20.271Z,100305.66
2022-12-05T16:41:47.611Z,100304.41
2022-12-05T16:44:27.000Z,100302.66
2022-12-05T16:46:57.794Z,100294.09
2022-12-05T16:49:31.153Z,100287.34
2022-12-05T16:52:07.580Z,100278.44
2022-12-05T16:54:35.184Z,100270.47
2022-12-05T16:57:02.805Z,100264.22
2022-12-05T16:59:37.590Z,100255.94
2022-12-05T17:02:07.644Z,100261.41
2022-12-05T17:04:35.233Z,100266.31
2022-12-05T17:07:02.657Z,100258.63
2022-12-05T17:09:30.270Z,100251.06
2022-12-05T17:12:21.719Z,100251.91
2022-12-05T17:14:49.537Z,100235.91
2022-12-05T17:17:18.233Z,100242.91
2022-12-05T17:19:45.602Z,100232.16
2022-12-05T17:22:13.979Z,100240.00
2022-12-05T17:24:41.593Z,100241.34
2022-12-05T17:27:12.245Z,100239.72
2022-12-05T17:29:39.855Z,100236.94
2022-12-05T17:32:07.195Z,100240.03
2022-12-05T17:34:34.547Z,100243.44
2022-12-05T17:37:02.606Z,100239.53
2022-12-05T17:39:29.952Z,100236.47
2022-12-05T17:41:57.288Z,100240.56
2022-12-05T17:44:25.127Z,100242.41
2022-12-05T17:46:52.540Z,100244.88
2022-12-05T17:49:20.215Z,100241.00
2022-12-05T17:54:35.156Z,100244.47
2022-12-05T17:57:02.888Z,100242.41
2022-12-05T17:59:30.244Z,100242.31
2022-12-05T18:01:57.587Z,100240.97
2022-12-05T18:04:25.232Z,100238.72
2022-12-05T18:06:52.702Z,100238.53
2022-12-05T18:09:20.101Z,100222.16
2022-12-05T18:11:47.713Z,100233.47
2022-12-05T18:14:15.103Z,100235.78
2022-12-05T18:16:43.150Z,100240.13
2022-12-05T18:19:10.854Z,100244.91
2022-12-05T18:21:38.185Z,100248.91
2022-12-05T18:24:05.624Z,100240.97
2022-12-05T18:26:33.358Z,100237.00
2022-12-05T18:29:00.681Z,100237.09
2022-12-05T18:31:28.059Z,100234.50
2022-12-05T18:33:55.704Z,100228.75
2022-12-05T18:36:23.037Z,100230.34
2022-12-05T18:38:51.601Z,100231.41
2022-12-05T18:41:19.484Z,100227.69
2022-12-05T18:43:47.205Z,100229.75
2022-12-05T18:46:14.590Z,100230.81
2022-12-05T18:48:46.022Z,100225.88
2022-12-05T18:51:15.362Z,100225.94
2022-12-05T18:53:43.036Z,100217.78
2022-12-05T18:56:22.094Z,100225.34
2022-12-05T18:59:14.396Z,100219.22
2022-12-05T19:01:42.167Z,100223.13
2022-12-05T19:04:12.462Z,100210.97
2022-12-05T19:06:41.452Z,100216.25
2022-12-05T19:09:11.739Z,100220.47
2022-12-05T19:11:47.324Z,100213.00
2022-12-05T19:14:16.459Z,100198.19
2022-12-05T19:16:44.190Z,100200.50
2022-12-05T19:19:12.960Z,100208.69
2022-12-05T19:21:40.534Z,100198.09
2022-12-05T19:24:08.457Z,100203.37
2022-12-05T19:26:36.509Z,100198.78
2022-12-05T19:29:04.082Z,100198.88
2022-12-05T19:31:31.867Z,100194.91
2022-12-05T19:34:00.424Z,100192.06
2022-12-05T19:36:31.821Z,100190.34
2022-12-05T19:38:59.599Z,100188.59
2022-12-05T19:41:28.952Z,100181.09
2022-12-05T19:43:59.116Z,100186.56
2022-12-05T19:46:29.698Z,100189.06
2022-12-05T19:49:03.155Z,100189.87
2022-12-05T19:51:31.251Z,100181.41
2022-12-05T19:53:59.959Z,100188.06
2022-12-05T19:56:28.271Z,100182.75
2022-12-05T19:58:56.463Z,100184.69
2022-12-05T20:01:25.754Z,100182.47
2022-12-05T20:03:55.541Z,100195.41
2022-12-05T20:06:23.081Z,100186.41
2022-12-05T20:08:52.422Z,100183.28
2022-12-05T20:11:21.949Z,100184.34
2022-12-05T20:13:49.316Z,100194.97
2022-12-05T20:16:18.568Z,100191.72
2022-12-05T20:18:46.533Z,100185.53
2022-12-05T20:21:15.360Z,100180.69
2022-12-05T20:23:42.746Z,100175.72
2022-12-05T20:26:15.349Z,100180.25
2022-12-05T20:28:42.874Z,100175.72
2022-12-05T20:31:15.314Z,100175.03
2022-12-05T20:33:42.928Z,100177.59
2022-12-05T20:36:12.342Z,100173.13
2022-12-05T20:38:40.154Z,100173.94
2022-12-05T20:41:09.155Z,100172.03
2022-12-05T20:43:36.806Z,100170.03
2022-12-05T20:46:05.642Z,100163.22
2022-12-05T20:48:33.435Z,100168.44
2022-12-05T20:51:08.340Z,100165.78
2022-12-05T20:53:36.642Z,100161.91
2022-12-05T20:56:12.104Z,100150.28
2022-12-05T20:58:39.764Z,100149.78
2022-12-05T21:01:10.154Z,100145.03
2022-12-05T21:03:40.295Z,100146.47
2022-12-05T21:06:18.466Z,100138.53
2022-12-05T21:08:46.021Z,100134.88
2022-12-05T21:11:13.811Z,100135.41
2022-12-05T21:13:41.458Z,100133.44
2022-12-05T21:16:11.399Z,100137.84
2022-12-05T21:18:39.355Z,100147.16
2022-12-05T21:21:08.614Z,100142.56
2022-12-05T21:23:36.046Z,100147.56
2022-12-05T21:26:05.306Z,100154.63
2022-12-05T21:28:33.032Z,100148.16
2022-12-05T21:31:12.668Z,100134.47
2022-12-05T21:33:40.927Z,100142.00
2022-12-05T21:36:08.490Z,100143.31
2022-12-05T21:38:35.963Z,100154.16
2022-12-05T21:41:04.303Z,100155.91
2022-12-05T21:43:31.866Z,100140.00
2022-12-05T21:45:59.220Z,100140.66
2022-12-05T21:48:26.873Z,100134.53
2022-12-05T21:50:54.352Z,100122.53
2022-12-05T21:53:21.895Z,100131.47
2022-12-05T21:55:58.987Z,100120.56
2022-12-05T21:58:26.384Z,100126.94
2022-12-05T22:00:54.107Z,100129.50
2022-12-05T22:03:21.725Z,100131.13
2022-12-05T22:05:49.697Z,100134.78
2022-12-05T22:08:17.063Z,100118.19
2022-12-05T22:10:45.195Z,100124.59
2022-12-05T22:13:12.668Z,100114.44
2022-12-05T22:15:40.179Z,100122.84
2022-12-05T22:18:07.836Z,100099.97
2022-12-05T22:20:35.223Z,100106.06
2022-12-05T22:23:02.532Z,100105.81
2022-12-05T22:25:30.129Z,100097.66
2022-12-05T22:27:57.485Z,100104.38
2022-12-05T22:30:24.839Z,100101.16
2022-12-05T22:32:53.705Z,100101.59
2022-12-05T22:35:21.063Z,100101.25
2022-12-05T22:37:48.378Z,100088.97
2022-12-05T22:40:16.073Z,100083.47
2022-12-05T22:42:43.418Z,100092.97
2022-12-05T22:45:10.879Z,100093.19
2022-12-05T22:47:38.498Z,100096.94
2022-12-05T22:50:06.385Z,100086.91
2022-12-05T22:52:33.700Z,100089.00
2022-12-05T22:55:01.350Z,100086.91
2022-12-05T22:57:28.834Z,100080.34
2022-12-05T22:59:56.289Z,100089.31
2022-12-05T23:02:24.023Z,100087.19
2022-12-05T23:04:51.369Z,100088.94
2022-12-05T23:07:18.711Z,100074.41
2022-12-05T23:09:46.317Z,100063.25
2022-12-05T23:12:13.691Z,100056.38
2022-12-05T23:14:41.083Z,100048.75
2022-12-05T23:17:08.791Z,100059.34
2022-12-05T23:19:36.103Z,100051.91
2022-12-05T23:22:03.417Z,100051.81
2022-12-05T23:24:31.007Z,100048.47
2022-12-05T23:26:58.330Z,100050.03
2022-12-05T23:29:25.786Z,100037.91
2022-12-05T23:31:53.431Z,100034.69
2022-12-05T23:34:20.756Z,100029.81
2022-12-05T23:36:48.081Z,100026.38
2022-12-05T23:39:15.676Z,100015.44
2022-12-05T23:41:44.125Z,100018.94
2022-12-05T23:44:11.482Z,100014.69
2022-12-05T23:46:39.362Z,100007.72
2022-12-05T23:49:06.734Z,99992.75
2022-12-05T23:51:34.098Z,99984.53
2022-12-05T23:54:02.412Z,99988.00
2022-12-05T23:56:31.169Z,99992.03
2022-12-05T23:58:58.565Z,99996.06
